createdAt,value
2022-10-06T00:00:01.158Z,0.90
2022-10-06T00:05:10.431Z,0.50
2022-10-06T00:10:16.595Z,10.63
2022-10-06T00:15:24.483Z,2.43
2022-10-06T00:20:33.231Z,2.17
2022-10-06T00:25:39.218Z,1.67
2022-10-06T00:30:45.163Z,1.77
2022-10-06T00:36:00.967Z,1.92
2022-10-06T00:41:06.680Z,1.07
2022-10-06T00:46:14.427Z,2.00
2022-10-06T00:51:23.983Z,3.67
2022-10-06T00:56:29.846Z,2.77
2022-10-06T01:01:36.361Z,1.50
2022-10-06T01:06:51.488Z,2.45
2022-10-06T01:12:00.466Z,2.60
2022-10-06T01:17:10.563Z,3.97
2022-10-06T01:22:25.543Z,2.65
2022-10-06T01:27:36.130Z,2.20
2022-10-06T01:32:42.736Z,4.30
2022-10-06T01:37:48.538Z,4.13
2022-10-06T01:42:56.429Z,4.13
2022-10-06T01:48:05.259Z,5.07
2022-10-06T01:53:10.762Z,3.15
2022-10-06T01:58:21.122Z,1.53
2022-10-06T02:03:26.908Z,4.07
2022-10-06T02:08:32.613Z,3.20
2022-10-06T02:13:42.434Z,3.67
2022-10-06T02:18:48.106Z,3.00
2022-10-06T02:23:53.838Z,5.70
2022-10-06T02:29:02.116Z,2.47
2022-10-06T02:34:07.640Z,1.93
2022-10-06T02:39:13.842Z,4.75
2022-10-06T02:44:25.052Z,3.67
2022-10-06T02:49:32.655Z,3.30
2022-10-06T02:54:38.722Z,5.43
2022-10-06T02:59:46.819Z,10.80
2022-10-06T03:04:52.727Z,5.27
2022-10-06T03:09:58.242Z,5.72
2022-10-06T03:15:09.097Z,6.73
2022-10-06T03:20:14.935Z,8.43
2022-10-06T03:25:22.276Z,7.93
2022-10-06T03:30:30.505Z,4.17
2022-10-06T03:35:36.183Z,3.40
2022-10-06T03:40:41.499Z,3.65
2022-10-06T03:45:58.494Z,4.57
2022-10-06T03:51:06.462Z,5.17
2022-10-06T03:56:15.224Z,4.32
2022-10-06T04:01:26.610Z,9.20
2022-10-06T04:06:35.162Z,6.13
2022-10-06T04:11:42.741Z,8.63
2022-10-06T04:16:52.767Z,9.37
2022-10-06T04:22:07.431Z,5.63
2022-10-06T04:27:26.266Z,4.28
2022-10-06T04:32:40.873Z,8.90
2022-10-06T04:37:46.854Z,4.47
2022-10-06T04:42:52.715Z,8.35
2022-10-06T04:48:00.692Z,8.70
2022-10-06T04:53:06.480Z,6.10
2022-10-06T04:58:12.822Z,6.78
2022-10-06T05:03:21.197Z,7.43
2022-10-06T05:08:27.160Z,9.20
2022-10-06T05:13:33.657Z,6.78
2022-10-06T05:18:43.663Z,6.80
2022-10-06T05:23:49.743Z,5.80
2022-10-06T05:28:55.302Z,4.90
2022-10-06T05:34:03.822Z,6.03
2022-10-06T05:39:09.406Z,7.00
2022-10-06T05:44:23.225Z,9.20
2022-10-06T05:49:31.614Z,5.67
2022-10-06T05:54:40.491Z,5.90
2022-10-06T05:59:48.080Z,9.63
2022-10-06T06:04:56.406Z,7.33
2022-10-06T06:10:01.676Z,8.40
2022-10-06T06:15:21.070Z,13.40
2022-10-06T06:20:36.608Z,8.57
2022-10-06T06:25:44.363Z,10.97
2022-10-06T06:30:51.016Z,8.27
2022-10-06T06:36:01.454Z,12.23
2022-10-06T06:41:06.985Z,13.70
2022-10-06T06:46:12.969Z,17.33
2022-10-06T06:51:40.659Z,7.47
2022-10-06T06:56:46.897Z,6.60
2022-10-06T07:01:52.479Z,6.40
2022-10-06T07:07:03.207Z,8.50
2022-10-06T07:12:13.659Z,9.03
2022-10-06T07:17:39.375Z,13.25
2022-10-06T07:23:00.290Z,9.33
2022-10-06T07:28:07.094Z,11.57
2022-10-06T07:33:16.060Z,13.20
2022-10-06T07:38:27.675Z,10.60
2022-10-06T07:43:35.059Z,8.13
2022-10-06T07:48:41.106Z,11.43
2022-10-06T07:53:50.860Z,10.50
2022-10-06T07:59:03.337Z,8.13
2022-10-06T08:04:08.903Z,7.85
2022-10-06T08:09:17.083Z,11.55
2022-10-06T08:14:24.322Z,10.17
2022-10-06T08:19:29.751Z,9.32
2022-10-06T08:25:04.219Z,12.73
2022-10-06T08:30:07.695Z,11.17
2022-10-06T08:35:14.325Z,11.27
2022-10-06T08:40:23.014Z,11.70
2022-10-06T08:45:38.611Z,12.33
2022-10-06T08:50:54.098Z,7.25
2022-10-06T08:56:11.225Z,9.38
2022-10-06T09:01:20.044Z,11.40
2022-10-06T09:06:51.886Z,13.77
2022-10-06T09:12:07.386Z,12.00
2022-10-06T09:17:18.955Z,14.47
2022-10-06T09:22:26.123Z,12.95
2022-10-06T09:27:36.971Z,9.73
2022-10-06T09:32:48.481Z,8.80
2022-10-06T09:37:58.869Z,8.68
2022-10-06T09:43:08.516Z,12.83
2022-10-06T09:48:16.059Z,14.27
2022-10-06T09:53:21.814Z,6.45
2022-10-06T09:58:35.082Z,10.10
2022-10-06T10:04:08.512Z,14.97
2022-10-06T10:09:34.537Z,8.57
2022-10-06T10:14:42.638Z,10.88
2022-10-06T10:19:53.160Z,8.93
2022-10-06T10:25:07.475Z,8.02
2022-10-06T10:30:17.058Z,6.53
2022-10-06T10:35:28.847Z,7.83
2022-10-06T10:40:38.940Z,9.98
2022-10-06T10:45:50.572Z,7.50
2022-10-06T10:51:03.366Z,6.63
2022-10-06T10:56:12.016Z,9.53
2022-10-06T11:01:30.970Z,3.92
2022-10-06T11:06:56.306Z,5.57
2022-10-06T11:12:17.320Z,7.37
2022-10-06T11:17:44.223Z,4.88
2022-10-06T11:22:57.601Z,6.45
2022-10-06T11:28:11.757Z,6.47
2022-10-06T11:33:23.843Z,6.18
2022-10-06T11:38:38.438Z,5.95
2022-10-06T11:43:50.036Z,4.57
2022-10-06T11:49:33.034Z,4.83
2022-10-06T11:54:50.183Z,13.35
2022-10-06T11:59:57.423Z,6.25
2022-10-06T12:05:55.666Z,10.83
2022-10-06T12:11:01.667Z,8.15
2022-10-06T12:21:57.364Z,20.23
2022-10-06T12:27:28.735Z,8.18
2022-10-06T12:32:51.721Z,5.25
2022-10-06T12:38:05.082Z,4.90
2022-10-06T12:43:29.084Z,5.10
2022-10-06T12:48:42.732Z,6.53
2022-10-06T12:53:58.630Z,6.00
2022-10-06T12:59:23.003Z,4.38
2022-10-06T13:04:53.179Z,7.57
2022-10-06T13:10:20.233Z,4.50
2022-10-06T13:15:29.200Z,5.82
2022-10-06T13:20:39.607Z,7.32
2022-10-06T13:25:50.662Z,4.80
2022-10-06T13:30:57.618Z,5.45
2022-10-06T13:36:03.891Z,5.45
2022-10-06T13:41:23.257Z,2.63
2022-10-06T13:46:31.173Z,2.60
2022-10-06T13:51:36.820Z,6.55
2022-10-06T13:56:45.376Z,4.33
2022-10-06T14:01:51.055Z,6.30
2022-10-06T14:06:59.714Z,5.85
2022-10-06T14:12:10.727Z,4.33
2022-10-06T14:17:24.859Z,3.35
2022-10-06T14:22:35.235Z,6.55
2022-10-06T14:27:43.717Z,4.47
2022-10-06T14:32:49.513Z,4.88
2022-10-06T14:37:54.872Z,2.92
2022-10-06T14:43:02.665Z,7.53
2022-10-06T14:48:08.682Z,3.08
2022-10-06T14:53:17.139Z,8.15
2022-10-06T14:58:25.160Z,1.87
2022-10-06T15:03:30.680Z,6.43
2022-10-06T15:08:36.434Z,6.47
2022-10-06T15:13:44.298Z,5.28
2022-10-06T15:18:49.935Z,4.67
2022-10-06T15:23:59.122Z,2.90
2022-10-06T15:29:07.187Z,2.50
2022-10-06T15:34:15.107Z,3.03
2022-10-06T15:39:22.195Z,4.55
2022-10-06T15:44:34.607Z,4.00
2022-10-06T15:49:41.975Z,3.90
2022-10-06T15:54:48.961Z,2.77
2022-10-06T15:59:57.601Z,4.13
2022-10-06T16:05:15.248Z,3.75
2022-10-06T16:10:20.983Z,2.73
2022-10-06T16:15:29.355Z,3.42
2022-10-06T16:20:34.612Z,5.93
2022-10-06T16:25:40.190Z,4.90
2022-10-06T16:30:57.534Z,5.50
2022-10-06T16:36:02.976Z,3.90
2022-10-06T16:41:08.963Z,3.93
2022-10-06T16:46:19.237Z,5.22
2022-10-06T16:51:27.143Z,1.95
2022-10-06T16:56:34.309Z,3.07
2022-10-06T17:01:42.367Z,3.33
2022-10-06T17:06:50.526Z,2.53
2022-10-06T17:11:58.443Z,4.90
2022-10-06T17:17:06.676Z,2.60
2022-10-06T17:22:12.145Z,3.22
2022-10-06T17:27:17.987Z,5.00
2022-10-06T17:32:26.562Z,2.90
2022-10-06T17:37:31.995Z,5.82
2022-10-06T17:42:38.124Z,4.80
2022-10-06T17:47:46.603Z,3.90
2022-10-06T17:52:51.803Z,3.97
2022-10-06T17:57:59.177Z,7.37
2022-10-06T18:03:09.281Z,5.03
2022-10-06T18:08:14.692Z,5.47
2022-10-06T18:13:20.191Z,6.23
2022-10-06T18:18:28.296Z,8.80
2022-10-06T18:23:36.767Z,8.38
2022-10-06T18:28:42.220Z,8.60
2022-10-06T18:39:17.308Z,7.07
2022-10-06T18:44:43.167Z,5.30
2022-10-06T18:49:52.962Z,6.78
2022-10-06T18:54:58.696Z,4.47
2022-10-06T19:00:04.244Z,5.00
2022-10-06T19:05:12.630Z,5.75
2022-10-06T19:10:17.925Z,6.43
2022-10-06T19:15:23.521Z,7.13
2022-10-06T19:20:32.135Z,5.18
2022-10-06T19:25:37.827Z,8.65
2022-10-06T19:30:43.253Z,10.90
2022-10-06T19:35:57.669Z,9.23
2022-10-06T19:41:16.957Z,8.52
2022-10-06T19:46:22.844Z,7.57
2022-10-06T19:51:31.025Z,8.93
2022-10-06T19:56:36.820Z,5.90
2022-10-06T20:01:42.456Z,6.80
2022-10-06T20:06:50.723Z,7.03
2022-10-06T20:11:56.075Z,7.73
2022-10-06T20:17:02.909Z,8.13
2022-10-06T20:22:11.517Z,8.38
2022-10-06T20:27:17.387Z,10.10
2022-10-06T20:32:23.465Z,8.60
2022-10-06T20:37:31.564Z,9.18
2022-10-06T20:42:36.997Z,8.60
2022-10-06T20:47:42.578Z,8.03
2022-10-06T20:52:51.497Z,7.72
2022-10-06T20:57:57.352Z,10.47
2022-10-06T21:03:03.876Z,9.23
2022-10-06T21:08:12.016Z,10.23
2022-10-06T21:13:17.406Z,10.17
2022-10-06T21:18:23.377Z,9.37
2022-10-06T21:23:31.681Z,12.52
2022-10-06T21:28:38.555Z,8.03
2022-10-06T21:33:45.388Z,8.53
2022-10-06T21:38:56.208Z,10.15
2022-10-06T21:44:03.782Z,9.33
2022-10-06T21:49:12.560Z,6.90
2022-10-06T21:54:21.236Z,6.55
2022-10-06T21:59:26.941Z,9.30
2022-10-06T22:04:32.135Z,11.57
2022-10-06T22:09:40.331Z,7.65
2022-10-06T22:14:45.589Z,7.83
2022-10-06T22:19:51.163Z,10.10
2022-10-06T22:24:59.221Z,6.20
2022-10-06T22:30:05.406Z,10.20
2022-10-06T22:35:11.734Z,8.00
2022-10-06T22:40:19.795Z,8.93
2022-10-06T22:45:25.235Z,10.50
2022-10-06T22:50:31.064Z,14.88
2022-10-06T22:55:39.789Z,17.00
2022-10-06T23:00:45.883Z,18.60
2022-10-06T23:05:58.010Z,18.67
2022-10-06T23:11:11.354Z,19.00
2022-10-06T23:16:19.012Z,17.13
2022-10-06T23:21:27.845Z,17.23
2022-10-06T23:26:36.252Z,15.07
2022-10-06T23:31:41.676Z,15.73
2022-10-06T23:36:46.968Z,11.80
2022-10-06T23:41:55.169Z,11.30
2022-10-06T23:47:00.729Z,8.00
2022-10-06T23:52:06.904Z,11.87
2022-10-06T23:57:14.897Z,13.85
